首页
METAR-TAF:

METAR-TAF

机场 :

科尔多瓦, 阿根廷

纬度: 31-19S, 经度: 064-13W, 海拔: 484米

当前天气观测

该预报发布于42分钟前的03:00 UTC
风速8节,风向
温度 20°C
湿度 88%
气压 1014 hPa
能见度10公里或以上
1500米以下无云,无积雨云

METAR: SACO 260300Z 36008KT CAVOK 20/18 Q1014 NOSIG

时间: 00:42 (03:42 UTC)

预报

该预报发布于4小时和42分钟前的23:00 UTC
预报有效从26日的 00点(UTC)到 26日的 24点(UTC)
风速10节,风向东北
能见度10公里或以上
1500米以下无云,无积雨云
成为
从 26日的 02点(UTC)到 26日的 05点(UTC)
风速2节,风向多变
几率 30% :
短暂存在
从 26日的 08点(UTC)到 26日的 11点(UTC)
风速2节,风向多变
能見度: 3000
散云层高于1000英尺
轻雾
成为
从 26日的 12点(UTC)到 26日的 15点(UTC)
风速15节,风向北转东北
能见度10公里或以上
1500米以下无云,无积雨云
成为
从 26日的 17点(UTC)到 26日的 20点(UTC)
风速10节,风向东北,有时为20节阵风
能见度10公里或以上
散云层高于3000英尺
少量云层高于3500英尺, 塔状积云.

TAF: SACO 252300Z 2600/2624 05010KT CAVOK TX33/2618Z TN18/2609Z BECMG 2602/2605 VRB02KT PROB30 TEMPO 2608/2611 VRB02KT 3000 BR SCT010 BECMG 2612/2615 02015KT CAVOK BECMG 2617/2620 05010G20KT 9999 SCT030 FEW035TCU

超过4000个机场的气象观测和天气预报(METAR&TAF报告)。

可查询的气象台以黄色和红色小点在地图上表示。

将鼠标移到小点上方,可查看气象台名称。

然后点击查看天气观测和预报。

如需切换地图:点击带黑十字的绿色按钮放大地图;点击带横线的绿色按钮缩小地图;或者点击绿色箭头查看邻近地区的地图。


METAR-TAF: